CheckWX is a tool to help pilots better visualize weather data.  It is not intended as a substitute for an official pre-flight weather briefing.

13:19:14 UTC

KYNG TAF
Youngstown-Warren Regional Airport
Youngstown/Warren, Ohio, USA
KYNG 191128Z 1912/2012 12006KT P6SM SKC FM191400 14007KT P6SM SKC FM200000 13005KT P6SM FEW120 FEW250

Sep-19@
12:00 UTC

Sep-19 @ 12:00 UTC

Sep-19@
14:00 UTC

Sep-19 @ 14:00 UTC

KYNG 191128Z 1912/2012 12006KT P6SM SKC
Wind
  • 120° at 6 KTS
Cloud Levels
  • Clear skies

Sep-19@
14:00 UTC

Sep-19 @ 14:00 UTC

Sep-20@
00:00 UTC

Sep-20 @ 00:00 UTC

FM191400 14007KT P6SM SKC

From

From Standard forecast or significant change

Wind
  • 140° at 7 KTS
Cloud Levels
  • Clear skies

Sep-20@
00:00 UTC

Sep-20 @ 00:00 UTC

Sep-20@
12:00 UTC

Sep-20 @ 12:00 UTC

FM200000 13005KT P6SM FEW120 FEW250

From

From Standard forecast or significant change

Wind
  • 130° at 5 KTS
Cloud Levels
  • Few at 12,000' AGL
  • Few at 25,000' AGL